• Join FlightAware (Why Join?)
  • Login
  • US Flag 
02:50PM EDT


 

Airport Tracker/Info


-or-


 

Live Flight TrackerFlight Track Log ✈ EGF2992 ✈ 22-Apr-2013 ✈ KDFW - KCHS

Flight Track Log - Related Links

Times and Time Zones

All times are in EDT time to prevent confusion due to time zone crossing. See the EGF2992 flight status page for this flight to view local times or setup timezone preferences in your user account.

Time Position Orientation Groundspeed Altitude Reporting Facility
EDT Latitude Longitude Course Direction KTS MPH feet Rate Location/Type
09:20PM 32.8833 -97.0333 65° Northeast 155 178 1,200  Level Dallas / Fort Worth TRACON
09:21PM 32.8333 -97.0333 180° South 184 212 3,400 1,920 Climbing Dallas / Fort Worth TRACON
09:22PM 32.7833 -97.0333 180° South 223 257 5,100 1,800 Climbing Dallas / Fort Worth TRACON
09:23PM 32.6852 -96.7946 68° East  Level FlightAware Approximate
09:23PM 32.7167 -97.0167 168° South 266 306 7,100  Level Dallas / Fort Worth TRACON
09:24PM 32.7310 -96.6572 68° East  Level FlightAware Approximate
09:25PM 32.7781 -96.5204 65° Northeast  Level FlightAware Approximate
09:25PM 32.6922 -96.8753 102° East 302 348 9,900  Level Fort Worth Center
09:26PM 32.8298 -96.3858 65° Northeast  Level FlightAware Approximate
09:26PM 32.7064 -96.7789 80° East 324 373 10,200  Level Fort Worth Center
09:27PM 32.7517 -96.6525 67° East 361 415 11,600 1,500 Climbing Fort Worth Center
09:28PM 32.7886 -96.5486 67° East 375 432 13,300 1,800 Climbing Fort Worth Center
09:29PM 32.8358 -96.4219 66° East 381 438 15,300 1,860 Climbing Fort Worth Center
09:30PM 32.8661 -96.3153 71° East 375 432 17,100 1,800 Climbing Fort Worth Center
09:31PM 32.8692 -96.1792 88° East 369 425 19,000 1,500 Climbing Fort Worth Center
09:32PM 32.8700 -96.0606 89° East 385 443 20,200 1,260 Climbing Fort Worth Center
09:33PM 32.8725 -95.9119 89° East 398 458 21,500 1,260 Climbing Fort Worth Center
09:34PM 32.8750 -95.7883 89° East 409 471 22,800 1,320 Climbing Fort Worth Center
09:35PM 32.8772 -95.6447 89° East 420 483 24,200 1,440 Climbing Fort Worth Center
09:36PM 32.8792 -95.4889 89° East 427 491 25,700 1,440 Climbing Fort Worth Center
09:37PM 32.8833 -95.3453 88° East 427 491 27,100 1,500 Climbing Fort Worth Center
09:38PM 32.8997 -95.2089 82° East 420 483 28,800 1,620 Climbing Fort Worth Center
09:39PM 32.9222 -95.0772 78° East 415 478 30,400 1,440 Climbing Fort Worth Center
09:40PM 32.9447 -94.9428 79° East 410 472 31,700 1,200 Climbing Fort Worth Center
09:41PM 32.9631 -94.8064 81° East 410 472 32,800 1,020 Climbing Fort Worth Center
09:42PM 32.9831 -94.6694 80° East 415 478 33,800 960 Climbing Fort Worth Center
09:43PM 33.0050 -94.5275 80° East 415 478 34,800 960 Climbing Fort Worth Center
09:44PM 33.0267 -94.3856 80° East 421 484 35,800 960 Climbing Fort Worth Center
09:45PM 33.0461 -94.2461 81° East 426 490 36,800 540 Climbing Fort Worth Center
09:46PM 33.0653 -94.1019 81° East 431 496 37,000 60 Climbing Fort Worth Center
09:47PM 33.0886 -93.9547 79° East 436 502 37,000  Level Fort Worth Center
09:48PM 33.1092 -93.7975 81° East 457 526 37,000  Level Fort Worth Center
09:49PM 33.1336 -93.6378 80° East 472 543 37,000  Level Fort Worth Center
09:50PM 33.1561 -93.4856 80° East 472 543 37,000  Level Fort Worth Center
09:51PM 33.1783 -93.3308 80° East 472 543 37,000  Level Fort Worth Center
09:52PM 33.2003 -93.1758 80° East 472 543 37,000  Level Fort Worth Center
09:53PM 33.2219 -93.0183 81° East 467 537 37,000  Level Fort Worth Center
09:54PM 33.2436 -92.8633 80° East 467 537 37,000  Level Fort Worth Center
09:56PM 33.2747 -92.5561 83° East 464 534 37,000  Level Memphis Center
09:57PM 33.2919 -92.3953 83° East 469 540 37,000  Level Memphis Center
09:58PM 33.3069 -92.2389 83° East 469 540 37,000  Level Memphis Center
09:59PM 33.3219 -92.0800 84° East 475 547 37,000  Level Memphis Center
10:00PM 33.3344 -91.9164 85° East 481 554 37,000  Level Memphis Center
10:01PM 33.3489 -91.7547 84° East 481 554 37,000  Level Memphis Center
10:02PM 33.3569 -91.5733 87° East 486 559 37,000  Level Memphis Center
10:03PM 33.3731 -91.4144 83° East 486 559 37,000  Level Memphis Center
10:04PM 33.3869 -91.2503 84° East 486 559 37,000  Level Memphis Center
10:05PM 33.4006 -91.0914 84° East 486 559 37,000  Level Memphis Center
10:06PM 33.4139 -90.9322 84° East 479 551 37,000  Level Memphis Center
10:07PM 33.4269 -90.7753 84° East 479 551 37,000  Level Memphis Center
10:08PM 33.4378 -90.6161 85° East 479 551 37,000  Level Memphis Center
10:09PM 33.4506 -90.4567 84° East 479 551 37,000  Level Memphis Center
10:10PM 33.4631 -90.2975 85° East 479 551 37,000  Level Memphis Center
10:11PM 33.4669 -90.1331 88° East 479 551 37,000  Level Memphis Center
10:12PM 33.4708 -89.9711 88° East 479 551 37,000  Level Memphis Center
10:13PM 33.4722 -89.8069 89° East 479 551 37,000  Level Memphis Center
10:14PM 33.4756 -89.6450 89° East 479 551 37,000  Level Memphis Center
10:15PM 33.4767 -89.4806 89° East 484 557 37,000  Level Memphis Center
10:16PM 33.4794 -89.3161 89° East 489 563 37,000  Level Memphis Center
10:17PM 33.4803 -89.1517 90° East 489 563 37,000  Level Memphis Center
10:18PM 33.4825 -88.9847 89° East 494 568 37,000  Level Memphis Center
10:19PM 33.4847 -88.8206 89° East 494 568 37,000  Level Memphis Center
10:20PM 33.4869 -88.6536 89° East 494 568 37,000  Level Memphis Center
10:21PM 33.4908 -88.4917 88° East 494 568 37,000  Level Memphis Center
10:23PM 33.5189 -88.2122 83° East 476 548 37,000  Level Atlanta Center
10:24PM 33.5389 -88.0539 81° East 476 548 37,000  Level Atlanta Center
10:25PM 33.5564 -87.8975 82° East 481 554 37,000  Level Atlanta Center
10:26PM 33.5758 -87.7364 82° East 481 554 37,000  Level Atlanta Center
10:27PM 33.5908 -87.5897 83° East 481 554 37,000  Level Atlanta Center
10:28PM 33.6097 -87.4336 82° East 481 554 37,000  Level Atlanta Center
10:29PM 33.6286 -87.2772 82° East 481 554 37,000  Level Atlanta Center
10:30PM 33.6453 -87.1181 83° East 481 554 37,000  Level Atlanta Center
10:31PM 33.6636 -86.9564 82° East 481 554 37,000  Level Atlanta Center
10:32PM 33.6694 -86.7969 87° East 476 548 37,000  Level Atlanta Center
10:33PM 33.6667 -86.6347 91° East 476 548 37,000  Level Atlanta Center
10:34PM 33.6658 -86.4722 90° East 476 548 37,000  Level Atlanta Center
10:35PM 33.6628 -86.3125 91° East 476 548 37,000  Level Atlanta Center
10:36PM 33.6614 -86.1478 91° East 482 555 37,000  Level Atlanta Center
10:37PM 33.6600 -85.9856 91° East 482 555 37,000  Level Atlanta Center
10:38PM 33.6583 -85.8233 91° East 482 555 37,000  Level Atlanta Center
10:39PM 33.6586 -85.6461 90° East 475 547 37,000  Level Atlanta Center
10:40PM 33.6542 -85.4864 92° East 475 547 37,000  Level Atlanta Center
10:41PM 33.6497 -85.3239 92° East 480 552 37,000  Level Atlanta Center
10:42PM 33.6472 -85.1617 91° East 480 552 37,000  Level Atlanta Center
10:43PM 33.6422 -84.9969 92° East 480 552 37,000  Level Atlanta Center
10:44PM 33.6394 -84.8322 91° East 480 552 37,000  Level Atlanta Center
10:45PM 33.6361 -84.6725 91° East 480 552 37,000  Level Atlanta Center
10:46PM 33.6264 -84.5128 94° East 480 552 37,000  Level Atlanta Center
10:47PM 33.6331 -84.3456 87° East 480 552 37,000  Level Atlanta Center
10:48PM 33.6375 -84.1811 88° East 480 552 37,000  Level Atlanta Center
10:49PM 33.6461 -84.0214 86° East 487 560 37,000  Level Atlanta Center
10:50PM 33.6542 -83.8567 87° East 487 560 37,000  Level Atlanta Center
10:51PM 33.6603 -83.6944 87° East 487 560 37,000  Level Atlanta Center
10:52PM 33.6639 -83.5347 88° East 487 560 37,000  Level Atlanta Center
10:53PM 33.6714 -83.3672 87° East 482 555 37,000  Level Atlanta Center
10:54PM 33.6642 -83.2053 93° East 482 555 37,000  Level Atlanta Center
10:55PM 33.6589 -83.0606 92° East 482 555 37,000  Level Atlanta Center
10:56PM 33.6511 -82.8958 93° East 487 560 37,000 -240 Level Atlanta Center
10:57PM 33.6411 -82.7339 94° East 487 560 36,600 -720 Descending Atlanta Center
10:58PM 33.6372 -82.5692 92° East 487 560 35,600 -960 Descending Atlanta Center
10:59PM 33.6247 -82.4072 95° East 487 560 34,700 -1,080 Descending Atlanta Center
11:01PM 33.6017 -81.9947 94° East 479 551 31,900 -1,140 Descending Jacksonville Center
11:02PM 33.5942 -81.8578 94° East 472 543 30,800 -1,200 Descending Jacksonville Center
11:03PM 33.5658 -81.7086 103° East 465 535 29,500 -1,560 Descending Jacksonville Center
11:04PM 33.5164 -81.5547 111° Southeast 465 535 27,800 -1,740 Descending Jacksonville Center
11:05PM 33.4686 -81.4086 111° Southeast 481 554 26,100 -1,800 Descending Jacksonville Center
11:06PM 33.4189 -81.2550 111° Southeast 468 539 24,200 -2,220 Descending Jacksonville Center
11:07PM 33.3753 -81.1192 111° Southeast 449 517 21,800 -2,460 Descending Jacksonville Center
11:08PM 33.3336 -80.9833 110° East 436 502 19,300 -2,460 Descending Jacksonville Center
11:09PM 33.2897 -80.8525 112° Southeast 436 502 16,900 -2,700 Descending Jacksonville Center
11:10PM 33.2503 -80.7267 111° Southeast 423 487 13,900 -2,760 Descending Jacksonville Center
11:11PM 33.2106 -80.6086 112° Southeast 400 460 11,500 -1,800 Descending Jacksonville Center
11:12PM 33.1489 -80.5456 139° Southeast 336 387 10,400 -1,440 Descending Jacksonville Center
11:13PM 33.0853 -80.4878 143° Southeast 314 361 8,700 -1,500 Descending Jacksonville Center
11:14PM 33.0214 -80.4300 143° Southeast 301 346 7,500 -1,200 Descending Jacksonville Center
11:15PM 32.9619 -80.3747 142° Southeast 290 334 6,300 -1,440 Descending Jacksonville Center
11:16PM 32.9228 -80.3017 123° Southeast 266 306 4,700 -1,620 Descending Jacksonville Center
11:17PM 32.8881 -80.2283 119° Southeast 266 306 3,100 -1,620 Descending Jacksonville Center